• Join FlightAware (Why Join?)
  • Login
  • US Flag 
05:17PM EDT


 

Airport Tracker/Info


-or-


 

Live Flight TrackerFlight Track Log ✈ JBU914 ✈ 21-Feb-2014 ✈ KFLL - KSYR

Flight Track Log - Related Links

Times and Time Zones

All times are in EST time to prevent confusion due to time zone crossing. See the JBU914 flight status page for this flight to view local times or setup timezone preferences in your user account.

Time Position Orientation Groundspeed Altitude Reporting Facility
EST Latitude Longitude Course Direction KTS MPH feet Rate Location/Type
11:41AM 26.0750 -80.1389 18° North 134 154 800  Level Miami Center
11:42AM 26.0869 -80.0675 79° East 215 247 2,600 1,860 Climbing Miami Center
11:43AM 26.0989 -79.9961 79° East 275 316 4,800 2,760 Climbing Miami Center
11:44AM 26.1125 -79.9411 75° East 273 314 7,100 3,180 Climbing Miami Center
11:44AM 26.1300 -79.9044 62° Northeast 289 333 8,400 2,700 Climbing Miami Center
11:45AM 26.1497 -79.8703 57° Northeast 320 368 9,800 2,760 Climbing Miami Center
11:46AM 26.6880 -79.9292 18° North  Level Estimated
11:46AM 26.1953 -79.7833 60° Northeast 313 360 12,800  Level Miami Center
11:47AM 26.2386 -79.7033 59° Northeast 321 369 13,600 1,560 Climbing Miami Center
11:48AM 26.3033 -79.5961 56° Northeast 359 413 16,000 2,100 Climbing Miami Center
11:49AM 26.3614 -79.5069 54° Northeast 386 444 17,900 1,800 Climbing Miami Center
11:50AM 26.4608 -79.4303 35° Northeast 395 455 19,700 1,800 Climbing Miami Center
11:51AM 26.5536 -79.3836 24° Northeast 400 460 21,500 1,800 Climbing Miami Center
11:52AM 26.6736 -79.3233 24° Northeast 408 470 23,400 1,800 Climbing Miami Center
11:53AM 26.7853 -79.2653 25° Northeast 421 484 25,100 1,500 Climbing Miami Center
11:54AM 26.8950 -79.2117 24° Northeast 426 490 26,500 1,200 Climbing Miami Center
11:55AM 26.9958 -79.1600 25° Northeast 426 490 27,600 1,200 Climbing Miami Center
11:56AM 27.1244 -79.0947 24° Northeast 443 510 28,900 1,380 Climbing Miami Center
11:57AM 27.2419 -79.0456 20° North 448 516 30,400 1,320 Climbing Miami Center
11:58AM 27.3578 -78.9942 22° Northeast 448 516 31,600 1,140 Climbing Miami Center
11:59AM 27.4586 -78.9514 21° North 438 504 32,700 660 Climbing Miami Center
12:00PM 27.5742 -78.8997 22° Northeast 433 498 33,000 120 Climbing Miami Center
12:01PM 27.7086 -78.8433 20° North 450 518 33,000  Level Miami Center
12:02PM 27.8283 -78.7914 21° North 455 524 33,000  Level Miami Center
12:03PM 27.9356 -78.7439 21° North 455 524 33,000  Level Miami Center
12:04PM 28.0550 -78.6919 21° North 455 524 33,000  Level Miami Center
12:05PM 28.1769 -78.6394 21° North 456 525 33,000  Level Miami Center
12:06PM 28.3006 -78.5850 21° North 456 525 33,000  Level Miami Center
12:07PM 28.4203 -78.5325 21° North 461 531 33,000  Level Miami Center
12:08PM 28.5419 -78.4800 21° North 461 531 33,000  Level Miami Center
12:09PM 28.6656 -78.4272 21° North 461 531 33,000  Level Miami Center
12:10PM 28.7853 -78.3722 22° Northeast 461 531 33,000  Level Miami Center
12:11PM 28.9089 -78.3192 21° North 461 531 33,000  Level Miami Center
12:12PM 29.0283 -78.2686 20° North 461 531 33,000  Level Miami Center
12:13PM 29.1436 -78.2108 24° Northeast 456 525 33,000  Level Miami Center
12:14PM 29.2692 -78.1622 19° North 456 525 33,000  Level Miami Center
12:15PM 29.3886 -78.1089 21° North 456 525 33,000  Level Miami Center
12:17PM 29.5986 -77.9992 24° Northeast 456 525 33,000  Level Jacksonville Center
12:18PM 29.7239 -77.9450 21° North 462 532 33,000  Level Jacksonville Center
12:19PM 29.8469 -77.8931 20° North 467 537 33,000  Level Jacksonville Center
12:20PM 29.9658 -77.8344 23° Northeast 467 537 33,000  Level Jacksonville Center
12:21PM 30.0822 -77.7731 25° Northeast 467 537 33,000  Level Jacksonville Center
12:22PM 30.2119 -77.7253 18° North 472 543 33,000  Level Jacksonville Center
12:23PM 30.3486 -77.6506 25° Northeast 482 555 33,000  Level Jacksonville Center
12:24PM 30.4694 -77.5958 21° North 468 539 33,000  Level Jacksonville Center
12:25PM 30.5925 -77.5406 21° North 468 539 33,000  Level Jacksonville Center
12:26PM 30.7150 -77.4758 24° Northeast 468 539 33,000  Level Jacksonville Center
12:27PM 30.8328 -77.4522 10° North 441 507 33,000  Level Jacksonville Center
12:28PM 30.9586 -77.3697 29° Northeast 474 545 33,000  Level Jacksonville Center
12:31PM 31.3314 -77.2689 13° North 454 522 33,000  Level New York Center
12:32PM 31.4597 -77.2422 10° North 459 528 33,000  Level New York Center
12:33PM 31.5856 -77.2297 North 459 528 33,000  Level New York Center
12:34PM 31.7158 -77.2056 North 459 528 33,000  Level New York Center
12:35PM 31.8356 -77.1486 22° Northeast 459 528 33,000  Level New York Center
12:36PM 31.9033 -77.0119 60° Northeast 443 510 33,000  Level New York Center
12:37PM 31.9467 -76.8639 71° East 455 524 33,000  Level New York Center
12:38PM 31.9942 -76.7083 70° East 467 537 33,000  Level New York Center
12:39PM 32.0692 -76.5864 54° Northeast 473 544 33,000  Level New York Center
12:40PM 32.1583 -76.4653 49° Northeast 475 547 33,000  Level New York Center
12:41PM 32.2536 -76.3467 46° Northeast 482 555 33,000  Level New York Center
12:42PM 32.3578 -76.2603 35° Northeast 467 537 33,000  Level New York Center
12:43PM 32.4642 -76.1714 35° Northeast 475 547 33,000  Level New York Center
12:44PM 32.5703 -76.0847 35° Northeast 474 545 33,000  Level New York Center
12:45PM 32.6808 -75.9906 36° Northeast 474 545 33,000  Level New York Center
12:46PM 32.7911 -75.9014 34° Northeast 474 545 33,000  Level New York Center
12:47PM 32.9036 -75.8069 35° Northeast 474 545 33,000  Level New York Center
12:48PM 33.0136 -75.7172 34° Northeast 467 537 33,000  Level New York Center
12:49PM 33.1175 -75.6267 36° Northeast 469 540 33,000  Level New York Center
12:50PM 33.2297 -75.5342 35° Northeast 475 547 33,000  Level New York Center
12:51PM 33.3375 -75.4436 35° Northeast 470 541 33,000  Level New York Center
12:52PM 33.4436 -75.3500 36° Northeast 470 541 33,000  Level New York Center
12:53PM 33.5556 -75.2567 35° Northeast 470 541 33,000  Level New York Center
12:54PM 33.6633 -75.1653 35° Northeast 475 547 33,000  Level New York Center
12:55PM 33.7772 -75.0717 34° Northeast 475 547 33,000  Level New York Center
12:56PM 33.8850 -74.9775 36° Northeast 475 547 33,000  Level New York Center
12:57PM 33.9925 -74.8853 35° Northeast 475 547 33,000  Level New York Center
12:58PM 34.0936 -74.7978 36° Northeast 485 558 33,000  Level New York Center
12:59PM 34.1992 -74.7028 37° Northeast 480 552 33,000  Level New York Center
01:00PM 34.3147 -74.6103 33° Northeast 485 558 33,000  Level New York Center
01:01PM 34.4397 -74.4931 38° Northeast 491 565 33,000  Level New York Center
01:02PM 34.5469 -74.3997 36° Northeast 490 564 33,000 -120 Level New York Center
01:03PM 34.6606 -74.3014 35° Northeast 490 564 32,800 -480 Descending New York Center
01:04PM 34.7742 -74.1978 37° Northeast 495 570 32,100 -420 Descending New York Center
01:05PM 34.8853 -74.1014 35° Northeast 495 570 32,000 -60 Descending New York Center
01:06PM 34.9708 -74.0264 36° Northeast 490 564 32,000  Level New York Center
01:07PM 35.1036 -73.9075 36° Northeast 485 558 32,000  Level New York Center
01:08PM 35.2167 -73.8078 36° Northeast 492 566 32,000  Level New York Center
01:09PM 35.3256 -73.7128 35° Northeast 492 566 32,000  Level New York Center
01:10PM 35.4389 -73.6100 36° Northeast 492 566 32,000  Level New York Center
01:11PM 35.5475 -73.5119 36° Northeast 497 572 32,000  Level New York Center
01:12PM 35.6583 -73.4111 36° Northeast 497 572 32,000  Level New York Center
01:13PM 35.7733 -73.3100 35° Northeast 495 570 32,000  Level New York Center
01:14PM 35.8839 -73.2086 37° Northeast 495 570 32,000  Level New York Center
01:15PM 35.9925 -73.1069 37° Northeast 495 570 32,000  Level New York Center
01:16PM 36.1028 -73.0075 36° Northeast 495 570 32,000  Level New York Center
01:17PM 36.2153 -72.9053 36° Northeast 495 570 32,000  Level New York Center
01:18PM 36.3258 -72.8028 37° Northeast 500 575 32,000  Level New York Center
01:19PM 36.4422 -72.6975 36° Northeast 500 575 32,000  Level New York Center
01:20PM 36.5503 -72.5942 38° Northeast 494 568 32,000  Level New York Center
01:21PM 36.6583 -72.4958 36° Northeast 507 583 32,000  Level New York Center
01:22PM 36.7722 -72.4078 32° Northeast 500 575 32,000  Level New York Center
01:23PM 36.9100 -72.3953 North 461 531 32,000  Level New York Center
01:24PM 37.0394 -72.3953 360° North 469 540 32,000  Level New York Center
01:25PM 37.1711 -72.3906 North 466 536 32,000  Level New York Center
01:26PM 37.3025 -72.3908 360° North 466 536 32,000  Level New York Center
01:27PM 37.4339 -72.3886 North 471 542 32,000  Level New York Center
01:28PM 37.5714 -72.3889 360° North 471 542 32,000  Level New York Center
01:29PM 37.6925 -72.3889 360° North 466 536 32,000  Level New York Center
01:30PM 37.8222 -72.3656 North 466 536 32,000  Level New York Center
01:31PM 37.9544 -72.3000 21° North 475 547 32,000  Level New York Center
01:32PM 38.0867 -72.2289 23° Northeast 487 560 32,000  Level New York Center
01:33PM 38.2167 -72.1761 18° North 487 560 32,000  Level New York Center
01:34PM 38.3447 -72.1258 17° North 487 560 32,000  Level New York Center
01:35PM 38.4683 -72.0592 23° Northeast 481 554 32,000  Level New York Center
01:36PM 38.5878 -72.0056 19° North 467 537 32,000  Level New York Center
01:37PM 38.7114 -71.9492 20° North 462 532 32,000  Level New York Center
01:38PM 38.8331 -71.8925 20° North 462 532 32,000  Level New York Center
01:39PM 38.9544 -71.8358 20° North 462 532 32,000  Level New York Center
01:40PM 39.0761 -71.7789 20° North 462 532 32,000  Level New York Center
01:41PM 39.1872 -71.7000 29° Northeast 457 526 32,000  Level New York Center
01:42PM 39.2922 -71.5969 37° Northeast 462 532 32,000  Level New York Center
01:43PM 39.3972 -71.4961 37° Northeast 462 532 32,000  Level New York Center
01:44PM 39.5000 -71.3978 36° Northeast 467 537 32,000 -60 Level New York Center
01:45PM 39.6067 -71.2936 37° Northeast 467 537 31,900 -600 Descending New York Center
01:46PM 39.7136 -71.1892 37° Northeast 467 537 30,900 -960 Descending New York Center
01:47PM 39.8242 -71.1089 29° Northeast 462 532 30,000 -1,200 Descending New York Center
01:48PM 39.9386 -71.1528 344° North 414 476 28,500 -1,560 Descending New York Center
01:49PM 40.0153 -71.2564 314° West 370 426 26,900 -1,620 Descending New York Center
01:50PM 40.1278 -71.3061 341° North 385 443 25,300 -1,620 Descending New York Center
01:51PM 40.2386 -71.2361 26° Northeast 385 443 23,700 -1,680 Descending New York Center
01:52PM 40.2764 -71.0869 72° East 355 409 22,000 -1,380 Descending New York Center
01:53PM 40.2353 -70.9697 115° Southeast 306 352 21,000 -540 Descending New York Center
01:54PM 40.1644 -70.9614 175° South 198 228 21,000  Level New York Center
01:55PM 40.0956 -70.9964 201° Southwest 198 228 21,000  Level New York Center
01:56PM 40.0475 -71.0614 226° Southwest 227 261 21,000  Level New York Center
01:57PM 40.0264 -71.1453 252° West 227 261 21,000  Level New York Center
01:58PM 40.0197 -71.2400 265° West 249 287 21,000  Level New York Center
01:59PM 40.0631 -71.3272 303° West 249 287 21,000  Level New York Center
02:00PM 40.1231 -71.4064 315° West 278 320 21,000  Level New York Center
02:01PM 40.2086 -71.3747 16° North 267 307 21,000  Level New York Center
02:02PM 40.1842 -71.2631 106° East 173 199 21,000  Level New York Center
02:03PM 40.1283 -71.1839 133° Southeast 204 235 21,000  Level New York Center
02:04PM 40.0703 -71.1022 133° Southeast 267 307 21,000 180 Level New York Center
02:05PM 39.9994 -71.0989 178° South 254 292 21,400 1,140 Climbing New York Center
02:06PM 40.0000 -71.2406 270° West 303 349 24,000 960 Climbing Boston Center
02:07PM 40.0589 -71.3272 312° West 320 368 24,000  Level Boston Center
02:08PM 40.1069 -71.4194 304° West 311 358 24,000  Level Boston Center
02:09PM 40.1572 -71.5114 306° West 310 357 24,000  Level Boston Center
02:10PM 40.2064 -71.6036 305° West 310 357 24,000  Level Boston Center
02:11PM 40.2553 -71.6961 305° West 310 357 24,000  Level Boston Center
02:12PM 40.3083 -71.7964 305° West 336 387 24,000  Level Boston Center
02:13PM 40.3753 -71.9231 305° West 351 404 24,000  Level Boston Center
02:14PM 40.4267 -72.0200 305° West 351 404 24,000  Level Boston Center
02:15PM 40.4808 -72.1261 304° West 353 406 24,000  Level Boston Center
02:16PM 40.5361 -72.2306 305° West 351 404 24,000  Level Boston Center
02:17PM 40.5919 -72.3367 305° West 355 409 24,000  Level Boston Center
02:18PM 40.6453 -72.4422 304° West 349 402 24,000  Level Boston Center
02:19PM 40.7000 -72.5475 304° West 350 403 24,000  Level Boston Center
02:20PM 40.7542 -72.6525 304° West 349 402 24,000  Level Boston Center
02:21PM 40.8072 -72.7558 304° West 342 394 24,000  Level Boston Center
02:22PM 40.8708 -72.8817 304° West 344 396 24,000  Level Boston Center
02:23PM 40.9369 -72.9783 312° West 359 413 24,000  Level Boston Center
02:24PM 41.0044 -73.0717 314° West 355 409 24,000  Level Boston Center
02:25PM 41.0719 -73.1650 314° West 352 405 24,000  Level Boston Center
02:26PM 41.1408 -73.2594 314° West 355 409 24,000  Level Boston Center
02:27PM 41.2064 -73.3514 313° West 354 407 24,000  Level Boston Center
02:28PM 41.2758 -73.4461 314° West 357 411 24,000  Level Boston Center
02:29PM 41.3436 -73.5428 313° West 358 412 24,000  Level Boston Center
02:30PM 41.4131 -73.6392 314° West 359 413 24,000  Level Boston Center
02:32PM 41.4806 -73.7375 313° West 361 415 24,000  Level Boston Center
02:33PM 41.5494 -73.8347 313° West 362 417 24,000  Level Boston Center
02:34PM 41.6331 -73.9511 314° West 362 417 24,000  Level Boston Center
02:35PM 41.7003 -74.0483 313° West 359 413 24,000  Level Boston Center
02:36PM 41.7683 -74.1464 313° West 360 414 24,000  Level Boston Center
02:37PM 41.8289 -74.2319 314° West 370 426 24,000  Level Boston Center
02:38PM 41.9000 -74.3319 314° West 370 426 24,000  Level Boston Center
02:39PM 41.9756 -74.4450 312° West 369 425 24,000  Level Boston Center
02:40PM 42.0558 -74.5583 314° West 376 433 24,000  Level Boston Center
02:41PM 42.1194 -74.6522 312° West 381 438 24,000  Level Boston Center
02:42PM 42.1911 -74.7561 313° West 379 436 24,000  Level Boston Center
02:43PM 42.2625 -74.8583 313° West 375 432 24,000  Level Boston Center
02:44PM 42.3456 -74.9822 312° West 372 428 24,000  Level Boston Center
02:45PM 42.4150 -75.0847 313° West 371 427 24,000  Level Boston Center
02:46PM 42.4825 -75.1872 312° West 368 423 24,000  Level Boston Center
02:47PM 42.5136 -75.3003 291° West 316 364 24,000  Level Boston Center
02:48PM 42.5425 -75.4139 289° West 318 366 24,000  Level Boston Center
02:49PM 42.5739 -75.5292 290° West 324 373 24,000  Level Boston Center
02:50PM 42.6053 -75.6444 290° West 326 375 24,000  Level Boston Center
02:51PM 42.6356 -75.7603 290° West 326 375 24,000 -300 Level Boston Center
02:52PM 42.6661 -75.8753 290° West 324 373 23,500 -900 Descending Boston Center
02:53PM 42.6947 -75.9886 289° West 320 368 22,200 -1,380 Descending Boston Center
02:54PM 42.7256 -76.1061 290° West 324 373 20,800 -1,380 Descending Boston Center
02:55PM 42.7575 -76.2297 289° West 338 389 19,400 -900 Descending Boston Center
02:56PM 42.7894 -76.3531 289° West 345 397 19,000 -240 Descending Boston Center
02:57PM 42.8217 -76.4781 289° West 346 398 19,000 -660 Level Boston Center
02:58PM 42.8403 -76.6206 280° West 322 371 17,700 -2,040 Descending Boston Center
02:59PM 42.8461 -76.7392 274° West 315 362 14,900 -2,580 Descending Boston Center
03:00PM 42.8533 -76.8553 275° West 311 358 12,500 -1,920 Descending Boston Center
03:01PM 42.8564 -76.9669 272° West 301 346 11,100 -1,200 Descending Boston Center
03:02PM 42.8631 -77.0625 275° West 265 305 10,100 -1,200 Descending Boston Center
03:03PM 42.9019 -77.0978 326° Northwest 283 326 9,100 -1,500 Descending Cleveland Center
03:04PM 42.9800 -77.1539 332° Northwest 276 318 7,600 -1,560 Descending Cleveland Center
03:04PM 42.9828 -77.1575 316° Northwest 283 326 7,500 -1,620 Descending Cleveland Center
03:05PM 43.0425 -77.2075 329° Northwest 259 298 6,000 -1,560 Descending Cleveland Center
03:05PM 43.0450 -77.2086 342° North 272 313 5,900 -1,740 Descending Cleveland Center
03:06PM 43.0908 -77.2722 315° West 246 283 4,300 -1,680 Descending Cleveland Center
03:06PM 43.0944 -77.2733 347° North 253 291 4,200 -1,800 Descending Cleveland Center
03:07PM 43.1444 -77.3439 314° West 252 290 2,500 -1,680 Descending Cleveland Center
03:07PM 43.1442 -77.3389 94° East 251 289 2,500  Level Cleveland Center
03:08PM 43.1928 -77.4089 314° West 252 290 2,500  Level Cleveland Center
03:09PM 43.2336 -77.4803 308° West 204 235 2,500  Level Cleveland Center
03:09PM 43.2392 -77.4897 309° West 233 268 2,500  Level Cleveland Center
03:10PM 43.2428 -77.5522 275° West 188 216 2,500  Level Cleveland Center
03:10PM 43.2392 -77.5617 242° Southwest 202 232 2,500  Level Cleveland Center
03:11PM 43.2103 -77.6017 225° Southwest 173 199 2,500 -120 Level Cleveland Center
03:11PM 43.2033 -77.6044 196° South 181 208 2,400 -600 Descending Cleveland Center
03:12PM 43.1789 -77.6283 215° Southwest 119 137 1,900 -720 Descending Cleveland Center
03:12PM 43.1728 -77.6322 205° Southwest 153 176 1,700 -720 Descending Cleveland Center
03:13PM 43.1500 -77.6525 213° Southwest 124 143 1,200 -600 Descending Cleveland Center
03:13PM 43.1444 -77.6567 209° Southwest 134 154 1,100 -540 Descending Cleveland Center
03:14PM 43.1108 -77.6842 211° Southwest 119 137 500 -600 Descending Cleveland Center